createdAt,value
2022-10-06T00:00:47.293Z,73.82
2022-10-06T00:03:14.574Z,73.85
2022-10-06T00:05:41.887Z,72.16
2022-10-06T00:08:10.241Z,71.75
2022-10-06T00:10:37.345Z,70.65
2022-10-06T00:13:03.957Z,73.19
2022-10-06T00:15:32.468Z,73.45
2022-10-06T00:17:59.716Z,72.91
2022-10-06T00:20:27.092Z,73.06
2022-10-06T00:22:54.575Z,73.10
2022-10-06T00:25:23.476Z,73.39
2022-10-06T00:27:52.313Z,73.76
2022-10-06T00:30:22.340Z,74.60
2022-10-06T00:32:58.517Z,74.36
2022-10-06T00:35:27.481Z,74.25
2022-10-06T00:37:54.586Z,73.72
2022-10-06T00:40:22.661Z,76.00
2022-10-06T00:42:53.432Z,77.12
2022-10-06T00:45:24.823Z,77.73
2022-10-06T00:47:52.647Z,76.43
2022-10-06T00:50:19.739Z,77.87
2022-10-06T00:52:46.894Z,77.88
2022-10-06T00:55:14.022Z,77.02
2022-10-06T00:57:41.802Z,77.16
2022-10-06T01:00:09.521Z,78.48
2022-10-06T01:02:44.650Z,76.84
2022-10-06T01:05:20.041Z,76.82
2022-10-06T01:07:46.728Z,77.90
2022-10-06T01:10:13.320Z,79.48
2022-10-06T01:12:40.183Z,77.60
2022-10-06T01:15:08.159Z,75.93
2022-10-06T01:17:39.161Z,74.98
2022-10-06T01:20:10.333Z,76.32
2022-10-06T01:22:46.635Z,74.52
2022-10-06T01:25:16.376Z,75.99
2022-10-06T01:27:47.828Z,76.71
2022-10-06T01:30:18.931Z,77.93
2022-10-06T01:32:45.845Z,77.58
2022-10-06T01:35:12.486Z,79.35
2022-10-06T01:37:39.101Z,80.94
2022-10-06T01:40:06.202Z,80.94
2022-10-06T01:42:32.859Z,80.95
2022-10-06T01:44:59.692Z,81.74
2022-10-06T01:47:26.308Z,82.25
2022-10-06T01:49:52.930Z,81.99
2022-10-06T01:52:20.467Z,82.17
2022-10-06T01:54:47.137Z,81.76
2022-10-06T01:57:13.758Z,82.13
2022-10-06T01:59:40.355Z,79.71
2022-10-06T02:02:06.991Z,79.64
2022-10-06T02:04:33.583Z,77.67
2022-10-06T02:07:00.179Z,77.63
2022-10-06T02:09:26.783Z,76.59
2022-10-06T02:11:53.471Z,78.07
2022-10-06T02:14:20.047Z,77.28
2022-10-06T02:16:46.638Z,75.11
2022-10-06T02:19:13.205Z,72.77
2022-10-06T02:21:39.920Z,76.36
2022-10-06T02:24:06.571Z,77.20
2022-10-06T02:26:33.264Z,76.46
2022-10-06T02:28:59.868Z,78.71
2022-10-06T02:31:26.608Z,75.18
2022-10-06T02:33:53.310Z,76.32
2022-10-06T02:36:20.076Z,76.39
2022-10-06T02:38:46.650Z,76.14
2022-10-06T02:41:13.449Z,77.12
2022-10-06T02:43:40.155Z,77.19
2022-10-06T02:46:10.994Z,78.40
2022-10-06T02:48:38.446Z,77.32
2022-10-06T02:51:08.567Z,78.50
2022-10-06T02:53:36.025Z,79.51
2022-10-06T02:56:06.077Z,77.74
2022-10-06T02:58:33.649Z,77.20
2022-10-06T03:01:11.021Z,77.72
2022-10-06T03:03:38.570Z,80.53
2022-10-06T03:06:12.826Z,80.40
2022-10-06T03:08:39.428Z,77.70
2022-10-06T03:11:06.097Z,79.60
2022-10-06T03:13:32.692Z,81.08
2022-10-06T03:15:59.526Z,80.56
2022-10-06T03:18:26.721Z,80.56
2022-10-06T03:20:53.582Z,78.39
2022-10-06T03:23:20.150Z,76.43
2022-10-06T03:25:55.400Z,74.74
2022-10-06T03:28:22.069Z,74.29
2022-10-06T03:30:49.708Z,77.70
2022-10-06T03:33:16.296Z,75.85
2022-10-06T03:35:42.900Z,78.67
2022-10-06T03:38:09.494Z,76.29
2022-10-06T03:40:36.151Z,76.84
2022-10-06T03:43:03.488Z,80.36
2022-10-06T03:45:30.192Z,81.44
2022-10-06T03:47:56.792Z,81.00
2022-10-06T03:50:23.485Z,78.93
2022-10-06T03:52:50.290Z,80.23
2022-10-06T03:55:17.030Z,79.04
2022-10-06T03:57:43.692Z,79.26
2022-10-06T04:00:11.029Z,81.54
2022-10-06T04:02:39.868Z,81.84
2022-10-06T04:05:07.080Z,82.62
2022-10-06T04:07:33.838Z,82.50
2022-10-06T04:10:00.470Z,81.97
2022-10-06T04:12:27.124Z,80.70
2022-10-06T04:14:57.903Z,78.03
2022-10-06T04:17:26.703Z,76.40
2022-10-06T04:19:53.383Z,75.67
2022-10-06T04:22:20.036Z,75.17
2022-10-06T04:24:46.880Z,76.32
2022-10-06T04:27:13.595Z,76.98
2022-10-06T04:29:40.286Z,77.25
2022-10-06T04:32:07.241Z,79.11
2022-10-06T04:34:33.928Z,79.77
2022-10-06T04:37:00.576Z,78.68
2022-10-06T04:39:27.218Z,76.82
2022-10-06T04:41:53.857Z,77.00
2022-10-06T04:44:20.459Z,76.43
2022-10-06T04:46:47.091Z,76.33
2022-10-06T04:49:19.611Z,76.45
2022-10-06T04:51:50.574Z,76.24
2022-10-06T04:54:18.054Z,76.76
2022-10-06T04:56:44.635Z,78.24
2022-10-06T04:59:11.213Z,80.07
2022-10-06T05:01:38.110Z,81.54
2022-10-06T05:04:08.095Z,81.29
2022-10-06T05:06:36.411Z,78.13
2022-10-06T05:09:14.043Z,77.38
2022-10-06T05:11:40.701Z,75.72
2022-10-06T05:14:07.638Z,76.89
2022-10-06T05:16:34.669Z,79.86
2022-10-06T05:19:01.579Z,78.39
2022-10-06T05:21:31.063Z,79.69
2022-10-06T05:23:58.630Z,79.33
2022-10-06T05:26:29.060Z,76.63
2022-10-06T05:28:55.933Z,77.21
2022-10-06T05:31:25.788Z,78.26
2022-10-06T05:33:52.879Z,79.38
2022-10-06T05:36:22.299Z,78.45
2022-10-06T05:38:49.066Z,78.47
2022-10-06T05:41:21.679Z,78.01
2022-10-06T05:43:48.525Z,80.33
2022-10-06T05:46:18.311Z,79.96
2022-10-06T05:48:48.644Z,78.91
2022-10-06T05:51:17.118Z,77.99
2022-10-06T05:53:44.055Z,77.07
2022-10-06T05:56:13.888Z,74.56
2022-10-06T05:58:46.286Z,73.01
2022-10-06T06:01:16.572Z,74.26
2022-10-06T06:03:48.175Z,75.20
2022-10-06T06:06:16.880Z,74.62
2022-10-06T06:08:44.536Z,78.33
2022-10-06T06:11:11.630Z,73.64
2022-10-06T06:13:39.741Z,73.41
2022-10-06T06:16:12.681Z,72.44
2022-10-06T06:18:39.379Z,70.29
2022-10-06T06:21:09.186Z,71.03
2022-10-06T06:23:42.520Z,71.78
2022-10-06T06:26:12.395Z,71.41
2022-10-06T06:28:39.358Z,69.25
2022-10-06T06:31:10.995Z,68.91
2022-10-06T06:33:40.258Z,69.94
2022-10-06T06:36:21.944Z,72.68
2022-10-06T06:38:51.535Z,74.71
2022-10-06T06:41:27.175Z,75.10
2022-10-06T06:43:54.300Z,74.46
2022-10-06T06:46:24.121Z,72.67
2022-10-06T06:48:55.829Z,75.11
2022-10-06T06:51:23.246Z,76.28
2022-10-06T06:53:52.185Z,75.69
2022-10-06T06:56:20.344Z,74.94
2022-10-06T06:58:47.244Z,72.87
2022-10-06T07:01:18.738Z,70.96
2022-10-06T07:03:57.619Z,71.23
2022-10-06T07:06:28.168Z,70.60
2022-10-06T07:08:57.746Z,69.88
2022-10-06T07:11:34.052Z,69.88
2022-10-06T07:14:03.833Z,68.13
2022-10-06T07:16:32.111Z,67.36
2022-10-06T07:18:58.893Z,65.88
2022-10-06T07:21:25.493Z,64.91
2022-10-06T07:23:52.226Z,65.56
2022-10-06T07:26:19.005Z,65.16
2022-10-06T07:28:45.627Z,62.29
2022-10-06T07:31:12.367Z,59.61
2022-10-06T07:33:39.016Z,58.16
2022-10-06T07:36:05.721Z,56.95
2022-10-06T07:38:32.364Z,55.62
2022-10-06T07:43:45.648Z,53.62
2022-10-06T07:46:12.541Z,52.82
2022-10-06T07:48:39.330Z,52.75
2022-10-06T07:51:19.253Z,52.41
2022-10-06T07:53:46.466Z,51.65
2022-10-06T07:56:13.091Z,51.76
2022-10-06T07:58:40.062Z,52.64
2022-10-06T08:01:12.392Z,54.08
2022-10-06T08:03:40.888Z,54.27
2022-10-06T08:06:08.636Z,54.53
2022-10-06T08:08:35.220Z,54.14
2022-10-06T08:11:02.901Z,53.90
2022-10-06T08:13:29.762Z,53.95
2022-10-06T08:16:03.097Z,55.44
2022-10-06T08:18:46.937Z,55.74
2022-10-06T08:21:17.186Z,55.17
2022-10-06T08:23:45.707Z,55.75
2022-10-06T08:26:14.262Z,55.21
2022-10-06T08:28:47.985Z,55.36
2022-10-06T08:31:15.596Z,56.40
2022-10-06T08:33:44.299Z,56.03
2022-10-06T08:36:16.741Z,55.93
2022-10-06T08:38:43.432Z,56.90
2022-10-06T08:41:25.360Z,57.73
2022-10-06T08:44:02.072Z,58.51
2022-10-06T08:46:39.342Z,59.04
2022-10-06T08:49:15.759Z,59.47
2022-10-06T08:51:54.526Z,58.23
2022-10-06T08:54:37.462Z,59.88
2022-10-06T08:57:27.918Z,60.13
2022-10-06T08:59:54.795Z,61.24
2022-10-06T09:02:31.689Z,60.35
2022-10-06T09:05:02.721Z,61.24
2022-10-06T09:08:09.534Z,63.21
2022-10-06T09:11:06.602Z,63.91
2022-10-06T09:13:50.874Z,63.34
2022-10-06T09:16:41.091Z,61.97
2022-10-06T09:19:08.981Z,60.90
2022-10-06T09:21:43.113Z,61.22
2022-10-06T09:24:16.615Z,62.19
2022-10-06T09:26:46.931Z,61.42
2022-10-06T09:29:14.038Z,60.37
2022-10-06T09:31:44.461Z,59.85
2022-10-06T09:34:17.988Z,60.05
2022-10-06T09:37:02.014Z,59.77
2022-10-06T09:39:34.670Z,59.76
2022-10-06T09:42:06.059Z,60.74
2022-10-06T09:45:00.542Z,58.88
2022-10-06T09:47:42.403Z,59.41
2022-10-06T09:50:08.973Z,58.70
2022-10-06T09:52:35.657Z,58.40
2022-10-06T09:55:12.729Z,57.40
2022-10-06T09:57:52.277Z,57.98
2022-10-06T10:00:25.942Z,57.79
2022-10-06T10:03:02.651Z,58.31
2022-10-06T10:05:32.695Z,57.69
2022-10-06T10:08:16.159Z,56.68
2022-10-06T10:10:42.781Z,58.80
2022-10-06T10:13:23.163Z,56.41
2022-10-06T10:16:00.526Z,56.44
2022-10-06T10:18:31.542Z,56.65
2022-10-06T10:21:01.362Z,56.36
2022-10-06T10:23:32.002Z,57.15
2022-10-06T10:26:19.192Z,57.31
2022-10-06T10:28:51.944Z,56.53
2022-10-06T10:31:45.063Z,56.34
2022-10-06T10:34:24.393Z,56.33
2022-10-06T10:37:14.826Z,56.57
2022-10-06T10:40:10.355Z,56.48
2022-10-06T10:42:43.368Z,56.27
2022-10-06T10:45:32.599Z,55.96
2022-10-06T10:48:01.291Z,56.76
2022-10-06T10:50:49.344Z,56.37
2022-10-06T10:53:42.599Z,56.77
2022-10-06T10:56:13.241Z,56.81
2022-10-06T10:58:42.982Z,55.44
2022-10-06T11:01:56.003Z,54.97
2022-10-06T11:04:22.688Z,56.15
2022-10-06T11:07:10.302Z,54.87
2022-10-06T11:09:42.914Z,55.15
2022-10-06T11:12:24.744Z,53.48
2022-10-06T11:15:05.333Z,53.85
2022-10-06T11:17:44.669Z,54.52
2022-10-06T11:20:38.846Z,53.49
2022-10-06T11:23:38.299Z,53.60
2022-10-06T11:26:13.419Z,55.42
2022-10-06T11:28:53.772Z,54.90
2022-10-06T11:31:28.689Z,54.19
2022-10-06T11:34:00.397Z,55.11
2022-10-06T11:36:48.535Z,55.44
2022-10-06T11:39:33.667Z,54.54
2022-10-06T11:42:00.188Z,55.90
2022-10-06T11:44:41.365Z,53.98
2022-10-06T11:47:28.134Z,53.33
2022-10-06T11:50:01.227Z,53.47
2022-10-06T11:52:27.805Z,53.12
2022-10-06T11:55:13.056Z,54.24
2022-10-06T11:58:23.439Z,56.09
2022-10-06T12:00:52.509Z,55.63
2022-10-06T12:03:30.949Z,54.67
2022-10-06T12:05:57.814Z,54.71
2022-10-06T12:08:39.459Z,54.01
2022-10-06T12:11:41.407Z,54.69
2022-10-06T12:17:58.460Z,55.94
2022-10-06T12:20:32.754Z,56.21
2022-10-06T12:23:08.090Z,55.70
2022-10-06T12:25:46.349Z,55.39
2022-10-06T12:28:26.766Z,55.53
2022-10-06T12:31:18.467Z,55.54
2022-10-06T12:33:45.766Z,54.88
2022-10-06T12:36:22.954Z,55.12
2022-10-06T12:39:01.430Z,54.75
2022-10-06T12:41:52.884Z,55.80
2022-10-06T12:44:36.447Z,55.73
2022-10-06T12:47:12.732Z,56.54
2022-10-06T12:49:47.659Z,56.11
2022-10-06T12:52:35.398Z,56.16
2022-10-06T12:55:48.076Z,55.47
2022-10-06T12:58:28.307Z,55.99
2022-10-06T13:01:01.830Z,57.98
2022-10-06T13:03:30.053Z,56.00
2022-10-06T13:06:02.667Z,55.64
2022-10-06T13:08:32.261Z,56.07
2022-10-06T13:11:26.729Z,54.87
2022-10-06T13:14:06.791Z,55.72
2022-10-06T13:16:38.979Z,54.22
2022-10-06T13:19:05.693Z,49.41
2022-10-06T13:21:33.978Z,48.35
2022-10-06T13:24:00.742Z,47.97
2022-10-06T13:26:30.107Z,49.90
2022-10-06T13:28:59.531Z,50.02
2022-10-06T13:31:30.957Z,49.53
2022-10-06T13:34:09.674Z,48.89
2022-10-06T13:36:43.720Z,50.83
2022-10-06T13:39:18.553Z,49.00
2022-10-06T13:41:52.720Z,49.66
2022-10-06T13:44:19.353Z,49.85
2022-10-06T13:46:53.674Z,48.14
2022-10-06T13:49:20.218Z,50.18
2022-10-06T13:51:52.778Z,50.00
2022-10-06T13:54:58.725Z,50.77
2022-10-06T13:57:38.873Z,50.77
2022-10-06T14:00:14.830Z,49.22
2022-10-06T14:02:47.589Z,48.96
2022-10-06T14:05:37.535Z,50.17
2022-10-06T14:08:22.242Z,50.31
2022-10-06T14:10:59.483Z,50.81
2022-10-06T14:13:37.941Z,49.75
2022-10-06T14:16:08.638Z,49.62
2022-10-06T14:18:39.452Z,49.50
2022-10-06T14:21:17.898Z,50.18
2022-10-06T14:23:49.034Z,49.92
2022-10-06T14:26:17.836Z,51.18
2022-10-06T14:28:50.424Z,50.85
2022-10-06T14:31:18.086Z,50.88
2022-10-06T14:33:46.286Z,51.55
2022-10-06T14:36:38.109Z,51.47
2022-10-06T14:39:06.979Z,49.58
2022-10-06T14:41:34.235Z,50.03
2022-10-06T14:44:04.823Z,50.16
2022-10-06T14:46:32.350Z,50.34
2022-10-06T14:49:00.717Z,50.82
2022-10-06T14:51:32.080Z,50.19
2022-10-06T14:54:01.401Z,49.83
2022-10-06T14:56:31.667Z,49.72
2022-10-06T14:59:05.666Z,48.82
2022-10-06T15:01:34.889Z,49.60
2022-10-06T15:04:05.084Z,49.28
2022-10-06T15:06:31.766Z,49.91
2022-10-06T15:08:58.846Z,50.45
2022-10-06T15:11:28.666Z,49.45
2022-10-06T15:13:57.274Z,49.88
2022-10-06T15:16:24.650Z,49.65
2022-10-06T15:18:52.388Z,49.88
2022-10-06T15:21:19.762Z,50.61
2022-10-06T15:23:46.609Z,50.73
2022-10-06T15:26:15.649Z,51.11
2022-10-06T15:28:42.297Z,51.69
2022-10-06T15:31:09.064Z,52.35
2022-10-06T15:33:35.730Z,52.16
2022-10-06T15:36:19.610Z,52.91
2022-10-06T15:38:46.981Z,52.58
2022-10-06T15:41:13.866Z,51.04
2022-10-06T15:43:41.421Z,52.36
2022-10-06T15:46:08.108Z,53.12
2022-10-06T15:48:34.872Z,54.19
2022-10-06T15:51:01.532Z,54.37
2022-10-06T15:53:28.204Z,54.54
2022-10-06T15:55:54.805Z,55.17
2022-10-06T15:58:21.443Z,54.83
2022-10-06T16:00:48.036Z,56.37
2022-10-06T16:03:14.626Z,56.75
2022-10-06T16:05:41.306Z,56.13
2022-10-06T16:08:07.859Z,57.06
2022-10-06T16:10:34.427Z,57.81
2022-10-06T16:13:00.995Z,57.53
2022-10-06T16:15:27.648Z,58.33
2022-10-06T16:17:54.271Z,58.32
2022-10-06T16:20:20.860Z,58.84
2022-10-06T16:22:47.434Z,59.71
2022-10-06T16:25:14.045Z,59.57
2022-10-06T16:27:40.699Z,59.10
2022-10-06T16:30:08.044Z,60.13
2022-10-06T16:32:34.764Z,59.85
2022-10-06T16:35:01.473Z,60.31
2022-10-06T16:37:28.064Z,60.54
2022-10-06T16:39:54.778Z,61.17
2022-10-06T16:42:21.545Z,59.70
2022-10-06T16:44:51.081Z,60.59
2022-10-06T16:47:17.852Z,61.69
2022-10-06T16:49:44.492Z,60.89
2022-10-06T16:52:11.186Z,61.71
2022-10-06T16:54:38.062Z,61.50
2022-10-06T16:57:05.709Z,61.41
2022-10-06T16:59:35.085Z,62.09
2022-10-06T17:02:02.010Z,61.72
2022-10-06T17:04:28.904Z,62.25
2022-10-06T17:06:57.291Z,62.20
2022-10-06T17:09:29.028Z,62.06
2022-10-06T17:11:58.538Z,62.62
2022-10-06T17:14:25.696Z,62.70
2022-10-06T17:16:54.667Z,63.58
2022-10-06T17:19:23.908Z,64.01
2022-10-06T17:21:57.402Z,63.64
2022-10-06T17:24:25.305Z,64.11
2022-10-06T17:26:51.959Z,64.68
2022-10-06T17:29:21.214Z,64.56
2022-10-06T17:31:51.026Z,65.19
2022-10-06T17:34:21.447Z,66.07
2022-10-06T17:36:51.568Z,65.48
2022-10-06T17:39:21.539Z,66.43
2022-10-06T17:41:50.522Z,66.31
2022-10-06T17:44:20.386Z,66.20
2022-10-06T17:46:47.148Z,66.24
2022-10-06T17:49:16.038Z,66.95
2022-10-06T17:51:44.818Z,67.05
2022-10-06T17:54:13.204Z,66.34
2022-10-06T17:56:40.034Z,66.46
2022-10-06T17:59:11.336Z,67.23
2022-10-06T18:01:38.126Z,67.31
2022-10-06T18:04:06.540Z,68.02
2022-10-06T18:06:35.571Z,68.21
2022-10-06T18:09:02.640Z,68.28
2022-10-06T18:11:30.595Z,67.98
2022-10-06T18:13:57.665Z,68.56
2022-10-06T18:16:27.635Z,68.40
2022-10-06T18:18:55.864Z,68.59
2022-10-06T18:21:24.911Z,68.20
2022-10-06T18:23:52.676Z,69.10
2022-10-06T18:26:20.983Z,68.62
2022-10-06T18:28:49.615Z,68.68
2022-10-06T18:31:18.634Z,68.76
2022-10-06T18:36:33.599Z,69.14
2022-10-06T18:39:00.219Z,68.89
2022-10-06T18:41:28.175Z,69.28
2022-10-06T18:43:55.465Z,69.22
2022-10-06T18:46:22.286Z,68.72
2022-10-06T18:48:50.093Z,68.88
2022-10-06T18:51:16.689Z,69.29
2022-10-06T18:53:43.295Z,68.78
2022-10-06T18:56:09.888Z,69.49
2022-10-06T18:58:40.666Z,69.73
2022-10-06T19:01:08.501Z,69.81
2022-10-06T19:03:35.200Z,69.68
2022-10-06T19:06:04.882Z,70.45
2022-10-06T19:08:31.543Z,70.56
2022-10-06T19:11:06.507Z,70.82
2022-10-06T19:13:34.252Z,71.25
2022-10-06T19:16:00.854Z,70.78
2022-10-06T19:18:35.491Z,71.12
2022-10-06T19:21:07.151Z,71.48
2022-10-06T19:23:37.944Z,71.54
2022-10-06T19:26:07.565Z,71.45
2022-10-06T19:28:34.794Z,71.68
2022-10-06T19:31:05.438Z,71.57
2022-10-06T19:33:32.577Z,71.77
2022-10-06T19:35:59.579Z,72.23
2022-10-06T19:38:27.667Z,71.84
2022-10-06T19:40:54.429Z,71.79
2022-10-06T19:43:21.033Z,71.68
2022-10-06T19:45:57.335Z,71.59
2022-10-06T19:48:23.976Z,71.92
2022-10-06T19:50:50.532Z,72.35
2022-10-06T19:53:17.126Z,72.19
2022-10-06T19:55:43.710Z,71.06
2022-10-06T19:58:10.389Z,71.01
2022-10-06T20:00:36.962Z,70.36
2022-10-06T20:03:03.596Z,69.20
2022-10-06T20:05:30.219Z,69.45
2022-10-06T20:07:56.841Z,68.35
2022-10-06T20:10:23.458Z,70.12
2022-10-06T20:12:50.071Z,71.41
2022-10-06T20:15:16.673Z,71.61
2022-10-06T20:17:43.509Z,72.48
2022-10-06T20:20:10.464Z,72.39
2022-10-06T20:22:37.168Z,72.16
2022-10-06T20:25:04.090Z,72.12
2022-10-06T20:27:30.725Z,72.29
2022-10-06T20:29:57.386Z,71.74
2022-10-06T20:32:24.185Z,71.86
2022-10-06T20:34:52.158Z,71.68
2022-10-06T20:37:20.069Z,71.48
2022-10-06T20:39:46.728Z,71.86
2022-10-06T20:42:15.477Z,72.77
2022-10-06T20:44:43.096Z,72.67
2022-10-06T20:47:10.638Z,72.74
2022-10-06T20:49:37.450Z,71.63
2022-10-06T20:52:05.384Z,71.33
2022-10-06T20:54:32.389Z,70.76
2022-10-06T20:56:59.074Z,70.75
2022-10-06T20:59:25.854Z,70.56
2022-10-06T21:01:52.481Z,71.84
2022-10-06T21:04:20.032Z,71.34
2022-10-06T21:06:47.510Z,71.05
2022-10-06T21:09:16.332Z,69.55
2022-10-06T21:11:44.264Z,68.63
2022-10-06T21:14:12.246Z,69.25
2022-10-06T21:16:42.735Z,69.25
2022-10-06T21:19:12.602Z,71.11
2022-10-06T21:21:39.197Z,68.16
2022-10-06T21:24:06.490Z,66.54
2022-10-06T21:26:33.195Z,65.48
2022-10-06T21:28:59.819Z,65.34
2022-10-06T21:31:27.910Z,64.65
2022-10-06T21:33:55.366Z,65.15
2022-10-06T21:36:25.134Z,66.92
2022-10-06T21:38:55.130Z,68.19
2022-10-06T21:41:25.212Z,70.33
2022-10-06T21:44:14.051Z,69.24
2022-10-06T21:46:54.958Z,71.99
2022-10-06T21:49:23.832Z,72.55
2022-10-06T21:51:52.777Z,72.60
2022-10-06T21:54:20.951Z,74.22
2022-10-06T21:56:47.956Z,74.84
2022-10-06T21:59:14.582Z,75.49
2022-10-06T22:01:43.832Z,74.44
2022-10-06T22:04:11.566Z,74.45
2022-10-06T22:06:38.159Z,73.29
2022-10-06T22:09:07.934Z,73.09
2022-10-06T22:11:39.844Z,73.15
2022-10-06T22:14:11.777Z,73.50
2022-10-06T22:16:38.969Z,73.69
2022-10-06T22:19:10.010Z,73.50
2022-10-06T22:21:42.338Z,73.49
2022-10-06T22:24:12.333Z,72.06
2022-10-06T22:26:40.596Z,72.01
2022-10-06T22:29:09.715Z,70.51
2022-10-06T22:31:39.437Z,69.03
2022-10-06T22:34:07.045Z,66.66
2022-10-06T22:36:34.250Z,66.20
2022-10-06T22:39:01.442Z,67.48
2022-10-06T22:41:28.912Z,69.86
2022-10-06T22:43:58.026Z,69.25
2022-10-06T22:46:26.642Z,71.24
2022-10-06T22:48:53.793Z,73.41
2022-10-06T22:51:20.898Z,71.92
2022-10-06T22:53:55.171Z,72.17
2022-10-06T22:56:25.030Z,70.74
2022-10-06T22:58:51.601Z,72.90
2022-10-06T23:01:19.503Z,73.03
2022-10-06T23:03:47.211Z,74.19
2022-10-06T23:06:16.265Z,75.30
2022-10-06T23:08:43.573Z,75.66
2022-10-06T23:11:19.963Z,75.01
2022-10-06T23:13:46.759Z,73.74
2022-10-06T23:16:16.096Z,72.58
2022-10-06T23:18:45.773Z,70.41
2022-10-06T23:21:19.067Z,73.50
2022-10-06T23:23:46.709Z,73.91
2022-10-06T23:26:15.878Z,70.91
2022-10-06T23:28:42.972Z,72.83
2022-10-06T23:31:10.684Z,74.09
2022-10-06T23:33:37.361Z,75.37
2022-10-06T23:36:07.080Z,73.65
2022-10-06T23:38:35.341Z,73.82
2022-10-06T23:41:02.254Z,74.80
2022-10-06T23:43:28.807Z,74.05
2022-10-06T23:45:55.407Z,74.29
2022-10-06T23:48:22.554Z,74.94
2022-10-06T23:51:04.378Z,74.58
2022-10-06T23:53:32.125Z,73.93
2022-10-06T23:55:59.382Z,71.24
2022-10-06T23:58:27.751Z,70.82
